createdAt,value
2018-01-08T00:00:17.569Z,22.67
2018-01-08T00:02:45.096Z,22.10
2018-01-08T00:05:12.665Z,25.37
2018-01-08T00:07:40.264Z,23.70
2018-01-08T00:10:08.556Z,27.20
2018-01-08T00:12:36.123Z,24.37
2018-01-08T00:15:03.649Z,22.50
2018-01-08T00:17:31.211Z,23.33
2018-01-08T00:19:58.738Z,24.40
2018-01-08T00:22:26.302Z,23.80
2018-01-08T00:24:53.876Z,25.20
2018-01-08T00:27:21.409Z,22.07
2018-01-08T00:29:48.941Z,24.40
2018-01-08T00:32:16.541Z,24.33
2018-01-08T00:34:44.063Z,22.93
2018-01-08T00:37:11.628Z,21.30
2018-01-08T00:39:39.193Z,24.30
2018-01-08T00:42:06.754Z,25.30
2018-01-08T00:44:34.280Z,22.10
2018-01-08T00:47:02.608Z,26.20
2018-01-08T00:49:30.140Z,24.53
2018-01-08T00:51:57.706Z,25.97
2018-01-08T00:54:25.224Z,23.43
2018-01-08T00:56:52.806Z,21.70
2018-01-08T00:59:21.144Z,25.23
2018-01-08T01:01:48.673Z,24.57
2018-01-08T01:04:16.229Z,26.10
2018-01-08T01:06:43.789Z,24.87
2018-01-08T01:09:11.314Z,27.00
2018-01-08T01:11:39.637Z,23.90
2018-01-08T01:14:07.181Z,26.93
2018-01-08T01:16:34.749Z,27.77
2018-01-08T01:19:02.306Z,23.80
2018-01-08T01:21:29.835Z,26.77
2018-01-08T01:23:58.162Z,26.03
2018-01-08T01:26:25.776Z,26.37
2018-01-08T01:28:53.304Z,25.80
2018-01-08T01:31:20.873Z,25.67
2018-01-08T01:33:48.397Z,25.43
2018-01-08T01:36:15.961Z,28.07
2018-01-08T01:38:43.482Z,25.57
2018-01-08T01:41:11.039Z,24.77
2018-01-08T01:43:38.665Z,26.47
2018-01-08T01:46:06.229Z,25.30
2018-01-08T01:48:33.758Z,25.00
2018-01-08T01:51:01.320Z,25.43
2018-01-08T01:53:29.641Z,26.67
2018-01-08T01:55:57.965Z,24.13
2018-01-08T01:58:25.494Z,23.97
2018-01-08T02:00:53.052Z,24.73
2018-01-08T02:03:20.609Z,23.60
2018-01-08T02:05:48.937Z,27.67
2018-01-08T02:08:16.463Z,28.03
2018-01-08T02:10:44.027Z,27.13
2018-01-08T02:13:11.587Z,27.67
2018-01-08T02:15:39.155Z,30.50
2018-01-08T02:18:06.681Z,28.83
2018-01-08T02:20:34.240Z,28.73
2018-01-08T02:23:01.797Z,24.00
2018-01-08T02:25:30.089Z,24.77
2018-01-08T02:27:57.648Z,25.77
2018-01-08T02:30:25.222Z,27.50
2018-01-08T02:32:52.784Z,30.73
2018-01-08T02:35:20.319Z,28.30
2018-01-08T02:37:47.900Z,27.43
2018-01-08T02:40:15.425Z,26.43
2018-01-08T02:42:42.956Z,29.70
2018-01-08T02:45:10.528Z,25.80
2018-01-08T02:47:38.070Z,27.17
2018-01-08T02:50:05.638Z,25.43
2018-01-08T02:52:33.158Z,31.80
2018-01-08T02:55:00.724Z,30.33
2018-01-08T02:57:28.254Z,29.93
2018-01-08T02:59:55.838Z,26.77
2018-01-08T03:02:23.366Z,31.70
2018-01-08T03:04:50.932Z,29.57
2018-01-08T03:07:18.456Z,28.23
2018-01-08T03:09:46.026Z,29.83
2018-01-08T03:12:13.572Z,31.87
2018-01-08T03:14:41.149Z,30.57
2018-01-08T03:17:08.673Z,26.73
2018-01-08T03:19:36.217Z,28.10
2018-01-08T03:22:03.787Z,29.10
2018-01-08T03:24:31.314Z,24.93
2018-01-08T03:26:58.870Z,27.13
2018-01-08T03:29:26.434Z,27.27
2018-01-08T03:31:54.028Z,29.33
2018-01-08T03:34:21.565Z,27.03
2018-01-08T03:36:49.177Z,27.30
2018-01-08T03:39:16.756Z,28.87
2018-01-08T03:41:45.070Z,27.70
2018-01-08T03:44:12.644Z,27.23
2018-01-08T03:46:40.223Z,25.80
2018-01-08T03:49:07.810Z,30.80
2018-01-08T03:51:35.374Z,23.83
2018-01-08T03:54:02.938Z,28.60
2018-01-08T03:56:31.328Z,26.70
2018-01-08T03:58:58.884Z,25.57
2018-01-08T04:01:27.175Z,31.73
2018-01-08T04:03:54.736Z,27.63
2018-01-08T04:06:22.303Z,28.13
2018-01-08T04:08:49.837Z,28.13
2018-01-08T04:11:18.166Z,28.17
2018-01-08T04:13:45.692Z,25.83
2018-01-08T04:16:13.222Z,27.53
2018-01-08T04:18:40.798Z,27.47
2018-01-08T04:21:08.418Z,26.77
2018-01-08T04:23:36.680Z,23.40
2018-01-08T04:26:04.242Z,26.73
2018-01-08T04:28:31.809Z,26.20
2018-01-08T04:30:59.334Z,26.17
2018-01-08T04:33:26.946Z,25.67
2018-01-08T04:35:54.468Z,22.57
2018-01-08T04:38:22.016Z,23.10
2018-01-08T04:40:49.566Z,26.80
2018-01-08T04:43:17.109Z,25.23
2018-01-08T04:45:45.433Z,23.60
2018-01-08T04:48:12.969Z,24.47
2018-01-08T04:50:40.529Z,27.00
2018-01-08T04:53:08.052Z,22.80
2018-01-08T04:55:36.380Z,24.60
2018-01-08T04:58:03.942Z,22.87
2018-01-08T05:00:31.536Z,25.63
2018-01-08T05:02:59.061Z,25.97
2018-01-08T05:05:26.624Z,25.37
2018-01-08T05:07:54.213Z,23.30
2018-01-08T05:10:21.773Z,23.07
2018-01-08T05:12:49.320Z,20.63
2018-01-08T05:15:16.874Z,24.17
2018-01-08T05:17:44.430Z,27.40
2018-01-08T05:20:11.997Z,23.30
2018-01-08T05:22:39.557Z,22.13
2018-01-08T05:25:07.151Z,25.20
2018-01-08T05:27:35.478Z,26.87
2018-01-08T05:30:03.104Z,25.27
2018-01-08T05:32:30.592Z,23.60
2018-01-08T05:34:58.133Z,22.57
2018-01-08T05:37:25.702Z,23.37
2018-01-08T05:39:53.997Z,24.93
2018-01-08T05:42:21.559Z,23.43
2018-01-08T05:44:49.123Z,22.10
2018-01-08T05:47:16.673Z,25.90
2018-01-08T05:49:44.236Z,25.03
2018-01-08T05:52:11.771Z,24.17
2018-01-08T05:54:39.335Z,26.70
2018-01-08T05:57:06.906Z,23.33
2018-01-08T05:59:34.432Z,22.70
2018-01-08T06:02:02.002Z,21.77
2018-01-08T06:04:29.533Z,24.83
2018-01-08T06:06:57.862Z,25.20
2018-01-08T06:09:25.395Z,22.33
2018-01-08T06:11:52.926Z,23.33
2018-01-08T06:14:20.502Z,23.13
2018-01-08T06:16:48.030Z,24.20
2018-01-08T06:19:15.587Z,22.33
2018-01-08T06:21:43.115Z,23.17
2018-01-08T06:24:10.692Z,24.70
2018-01-08T06:26:38.215Z,19.90
2018-01-08T06:29:05.806Z,21.97
2018-01-08T06:31:33.338Z,23.63
2018-01-08T06:34:00.890Z,21.50
2018-01-08T06:36:28.422Z,24.50
2018-01-08T06:38:55.998Z,21.53
2018-01-08T06:41:23.619Z,22.87
2018-01-08T06:43:51.192Z,22.77
2018-01-08T06:46:18.719Z,23.43
2018-01-08T06:48:46.281Z,20.73
2018-01-08T06:51:13.820Z,26.27
2018-01-08T06:53:41.399Z,25.53
2018-01-08T06:56:08.922Z,23.40
2018-01-08T06:58:37.214Z,24.17
2018-01-08T07:01:05.035Z,22.03
2018-01-08T07:03:32.561Z,23.03
2018-01-08T07:06:00.175Z,22.00
2018-01-08T07:08:27.693Z,24.27
2018-01-08T07:10:55.231Z,23.07
2018-01-08T07:13:22.803Z,25.53
2018-01-08T07:15:50.326Z,18.73
2018-01-08T07:18:17.885Z,21.23
2018-01-08T07:20:45.420Z,20.80
2018-01-08T07:23:12.999Z,21.77
2018-01-08T07:25:40.763Z,20.77
2018-01-08T07:28:08.359Z,19.83
2018-01-08T07:30:36.048Z,21.80
2018-01-08T07:33:03.651Z,21.80
2018-01-08T07:35:31.247Z,23.77
2018-01-08T07:37:58.831Z,18.67
2018-01-08T07:40:26.386Z,22.27
2018-01-08T07:42:54.055Z,19.73
2018-01-08T07:45:22.424Z,20.13
2018-01-08T07:47:49.945Z,22.27
2018-01-08T07:50:17.512Z,23.30
2018-01-08T07:52:45.077Z,21.87
2018-01-08T07:55:12.668Z,26.30
2018-01-08T07:57:40.225Z,20.70
2018-01-08T08:00:07.944Z,23.37
2018-01-08T08:02:35.549Z,20.80
2018-01-08T08:05:03.097Z,22.10
2018-01-08T08:07:30.730Z,23.37
2018-01-08T08:09:58.286Z,24.73
2018-01-08T08:12:25.858Z,22.90
2018-01-08T08:14:53.421Z,20.57
2018-01-08T08:17:21.151Z,21.50
2018-01-08T08:19:48.704Z,22.77
2018-01-08T08:22:16.279Z,19.97
2018-01-08T08:24:43.838Z,22.37
2018-01-08T08:27:11.735Z,20.80
2018-01-08T08:29:39.325Z,21.47
2018-01-08T08:32:08.321Z,25.17
2018-01-08T08:34:36.382Z,21.23
2018-01-08T08:37:04.145Z,22.90
2018-01-08T08:39:31.697Z,21.63
2018-01-08T08:41:59.308Z,23.00
2018-01-08T08:44:26.898Z,21.77
2018-01-08T08:46:54.698Z,20.13
2018-01-08T08:49:22.278Z,25.67
2018-01-08T08:51:50.091Z,25.23
2018-01-08T08:54:17.712Z,23.17
2018-01-08T08:56:45.297Z,24.00
2018-01-08T08:59:12.937Z,21.50
2018-01-08T09:01:40.493Z,24.67
2018-01-08T09:04:08.047Z,26.40
2018-01-08T09:06:35.782Z,24.10
2018-01-08T09:09:03.353Z,24.23
2018-01-08T09:11:30.914Z,26.37
2018-01-08T09:13:58.446Z,23.93
2018-01-08T09:16:26.470Z,26.60
2018-01-08T09:18:54.028Z,22.13
2018-01-08T09:21:21.599Z,21.90
2018-01-08T09:23:49.542Z,22.80
2018-01-08T09:26:17.084Z,25.50
2018-01-08T09:28:44.653Z,22.50
2018-01-08T09:31:12.222Z,21.90
2018-01-08T09:33:39.775Z,20.47
2018-01-08T09:36:07.459Z,22.80
2018-01-08T09:38:35.775Z,23.53
2018-01-08T09:41:03.347Z,22.50
2018-01-08T09:43:30.893Z,24.17
2018-01-08T09:45:58.477Z,22.00
2018-01-08T09:48:26.007Z,19.97
2018-01-08T09:50:53.624Z,27.10
2018-01-08T09:53:21.198Z,22.90
2018-01-08T09:55:49.517Z,22.47
2018-01-08T09:58:17.289Z,20.43
2018-01-08T10:00:44.850Z,23.40
2018-01-08T10:03:24.235Z,21.90
2018-01-08T10:06:04.233Z,26.87
2018-01-08T10:08:43.453Z,23.33
2018-01-08T10:11:22.739Z,21.80
2018-01-08T10:14:01.970Z,22.60
2018-01-08T10:16:42.165Z,21.43
2018-01-08T10:19:21.421Z,21.17
2018-01-08T10:21:49.017Z,21.53
2018-01-08T10:24:16.551Z,20.63
2018-01-08T10:26:44.981Z,21.73
2018-01-08T10:29:12.542Z,21.97
2018-01-08T10:31:40.828Z,21.20
2018-01-08T10:34:08.414Z,23.83
2018-01-08T10:36:36.025Z,20.07
2018-01-08T10:39:03.604Z,19.67
2018-01-08T10:41:37.529Z,21.03
2018-01-08T10:44:10.873Z,24.40
2018-01-08T10:46:44.031Z,20.13
2018-01-08T10:49:17.425Z,19.33
2018-01-08T10:51:44.837Z,21.10
2018-01-08T10:54:28.079Z,21.43
2018-01-08T10:56:55.634Z,20.70
2018-01-08T10:59:23.212Z,21.10
2018-01-08T11:04:51.012Z,17.97
2018-01-08T11:07:18.579Z,17.80
2018-01-08T11:09:46.143Z,20.17
2018-01-08T11:12:13.720Z,23.47
2018-01-08T11:14:41.350Z,22.80
2018-01-08T11:17:09.125Z,22.60
2018-01-08T11:19:36.651Z,20.57
2018-01-08T11:22:04.981Z,22.23
2018-01-08T11:24:32.553Z,17.77
2018-01-08T11:27:00.136Z,22.10
2018-01-08T11:29:27.675Z,20.93
2018-01-08T11:31:56.028Z,20.23
2018-01-08T11:34:23.586Z,21.73
2018-01-08T11:36:51.326Z,20.83
2018-01-08T11:39:18.888Z,20.90
2018-01-08T11:41:46.451Z,18.37
2018-01-08T11:44:13.978Z,16.80
2018-01-08T11:46:42.308Z,20.43
2018-01-08T11:49:09.917Z,27.07
2018-01-08T11:51:37.494Z,19.97
2018-01-08T11:54:05.091Z,21.63
2018-01-08T11:56:32.676Z,22.80
2018-01-08T11:59:00.267Z,19.23
2018-01-08T12:01:28.645Z,18.90
2018-01-08T12:03:57.020Z,18.40
2018-01-08T12:06:25.406Z,22.17
2018-01-08T12:08:53.045Z,20.93
2018-01-08T12:11:20.603Z,21.57
2018-01-08T12:13:48.214Z,17.57
2018-01-08T12:16:15.758Z,18.70
2018-01-08T12:18:43.590Z,19.53
2018-01-08T12:21:11.113Z,18.93
2018-01-08T12:23:38.681Z,16.30
2018-01-08T12:26:06.280Z,18.97
2018-01-08T12:28:33.917Z,19.80
2018-01-08T12:31:01.521Z,24.87
2018-01-08T12:33:29.086Z,20.97
2018-01-08T12:35:56.656Z,20.67
2018-01-08T12:38:24.214Z,20.33
2018-01-08T12:40:51.772Z,22.73
2018-01-08T12:43:19.345Z,21.57
2018-01-08T12:45:46.922Z,19.43
2018-01-08T12:48:14.539Z,18.23
2018-01-08T12:50:42.164Z,17.73
2018-01-08T12:53:09.689Z,21.33
2018-01-08T12:55:37.249Z,21.60
2018-01-08T12:58:04.809Z,20.13
2018-01-08T13:00:32.429Z,18.53
2018-01-08T13:03:00.012Z,18.43
2018-01-08T13:05:27.608Z,18.43
2018-01-08T13:07:55.227Z,19.10
2018-01-08T13:10:22.829Z,20.10
2018-01-08T13:12:50.464Z,19.63
2018-01-08T13:15:18.799Z,20.47
2018-01-08T13:17:46.337Z,19.43
2018-01-08T13:20:13.974Z,19.13
2018-01-08T13:22:41.518Z,16.77
2018-01-08T13:25:09.094Z,16.33
2018-01-08T13:27:36.697Z,21.23
2018-01-08T13:30:04.224Z,19.17
2018-01-08T13:32:31.774Z,17.60
2018-01-08T13:34:59.380Z,20.87
2018-01-08T13:37:27.078Z,16.93
2018-01-08T13:39:54.685Z,20.40
2018-01-08T13:42:22.217Z,18.63
2018-01-08T13:44:49.778Z,15.63
2018-01-08T13:47:17.341Z,17.83
2018-01-08T13:49:45.078Z,18.43
2018-01-08T13:52:13.606Z,16.30
2018-01-08T13:54:41.293Z,16.87
2018-01-08T13:57:09.382Z,17.60
2018-01-08T13:59:37.954Z,14.80
2018-01-08T14:02:06.367Z,17.60
2018-01-08T14:04:33.938Z,15.03
2018-01-08T14:07:01.472Z,15.90
2018-01-08T14:09:29.057Z,17.07
2018-01-08T14:11:56.608Z,14.60
2018-01-08T14:14:24.217Z,14.30
2018-01-08T14:16:51.843Z,15.47
2018-01-08T14:19:19.402Z,16.03
2018-01-08T14:21:46.934Z,18.03
2018-01-08T14:24:15.272Z,15.97
2018-01-08T14:26:42.808Z,15.73
2018-01-08T14:29:10.409Z,20.27
2018-01-08T14:31:38.059Z,19.50
2018-01-08T14:34:05.617Z,15.87
2018-01-08T14:36:33.199Z,19.50
2018-01-08T14:39:01.561Z,17.07
2018-01-08T14:41:29.131Z,15.37
2018-01-08T14:43:56.731Z,18.03
2018-01-08T14:46:24.297Z,13.67
2018-01-08T14:48:51.974Z,20.53
2018-01-08T14:51:19.565Z,15.57
2018-01-08T14:53:47.157Z,16.03
2018-01-08T14:56:14.721Z,16.90
2018-01-08T14:58:42.320Z,16.67
2018-01-08T15:01:09.885Z,16.13
2018-01-08T15:03:37.616Z,15.53
2018-01-08T15:06:05.185Z,16.33
2018-01-08T15:08:32.862Z,13.27
2018-01-08T15:11:00.415Z,13.43
2018-01-08T15:13:28.024Z,19.43
2018-01-08T15:15:55.621Z,15.50
2018-01-08T15:18:23.324Z,14.83
2018-01-08T15:20:50.876Z,15.77
2018-01-08T15:23:18.423Z,13.73
2018-01-08T15:25:46.000Z,13.27
2018-01-08T15:28:13.609Z,13.40
2018-01-08T15:30:41.178Z,15.63
2018-01-08T15:33:08.759Z,14.80
2018-01-08T15:35:36.338Z,16.37
2018-01-08T15:38:04.018Z,12.47
2018-01-08T15:40:31.606Z,11.30
2018-01-08T15:42:59.180Z,13.57
2018-01-08T15:45:26.797Z,14.03
2018-01-08T15:47:54.375Z,14.37
2018-01-08T15:50:22.698Z,14.40
2018-01-08T15:52:50.291Z,14.73
2018-01-08T15:55:18.320Z,13.80
2018-01-08T15:57:45.852Z,14.30
2018-01-08T16:00:13.553Z,12.80
2018-01-08T16:02:41.122Z,13.57
2018-01-08T16:05:08.708Z,12.67
2018-01-08T16:07:36.298Z,14.17
2018-01-08T16:10:03.869Z,12.90
2018-01-08T16:12:31.466Z,13.73
2018-01-08T16:14:59.037Z,14.43
2018-01-08T16:17:26.672Z,14.50
2018-01-08T16:19:54.210Z,11.53
2018-01-08T16:22:21.760Z,11.57
2018-01-08T16:24:49.315Z,13.13
2018-01-08T16:27:17.672Z,10.97
2018-01-08T16:29:45.209Z,10.60
2018-01-08T16:32:12.781Z,11.40
2018-01-08T16:34:40.318Z,13.93
2018-01-08T16:37:07.885Z,11.47
2018-01-08T16:39:35.510Z,10.97
2018-01-08T16:42:03.085Z,10.60
2018-01-08T16:44:30.645Z,12.53
2018-01-08T16:46:58.174Z,12.63
2018-01-08T16:49:25.732Z,11.30
2018-01-08T16:51:54.087Z,13.37
2018-01-08T16:54:22.576Z,14.10
2018-01-08T16:56:50.122Z,10.97
2018-01-08T16:59:17.683Z,11.17
2018-01-08T17:01:45.245Z,10.47
2018-01-08T17:04:12.785Z,10.60
2018-01-08T17:06:40.362Z,12.10
2018-01-08T17:09:07.889Z,10.47
2018-01-08T17:11:36.337Z,11.27
2018-01-08T17:14:03.868Z,12.40
2018-01-08T17:16:31.420Z,11.27
2018-01-08T17:18:59.005Z,13.23
2018-01-08T17:21:26.574Z,13.27
2018-01-08T17:23:54.871Z,10.97
2018-01-08T17:26:22.449Z,12.17
2018-01-08T17:28:50.080Z,11.83
2018-01-08T17:31:17.658Z,13.10
2018-01-08T17:33:45.641Z,12.47
2018-01-08T17:36:13.291Z,11.47
2018-01-08T17:38:40.926Z,12.43
2018-01-08T17:41:08.498Z,10.90
2018-01-08T17:43:36.108Z,10.13
2018-01-08T17:46:03.681Z,10.20
2018-01-08T17:48:31.262Z,11.03
2018-01-08T17:50:58.842Z,10.57
2018-01-08T17:53:26.421Z,10.50
2018-01-08T17:55:54.011Z,10.83
2018-01-08T17:58:21.615Z,10.97
2018-01-08T18:00:49.209Z,9.57
2018-01-08T18:03:16.741Z,11.57
2018-01-08T18:05:44.707Z,9.93
2018-01-08T18:08:12.302Z,9.10
2018-01-08T18:10:39.973Z,9.73
2018-01-08T18:13:07.649Z,9.97
2018-01-08T18:15:35.169Z,9.77
2018-01-08T18:18:02.799Z,8.47
2018-01-08T18:20:31.133Z,8.77
2018-01-08T18:22:58.667Z,8.57
2018-01-08T18:25:26.279Z,11.30
2018-01-08T18:27:53.912Z,10.30
2018-01-08T18:30:21.487Z,9.50
2018-01-08T18:32:49.088Z,8.30
2018-01-08T18:35:17.415Z,9.77
2018-01-08T18:37:44.999Z,10.93
2018-01-08T18:40:12.576Z,10.53
2018-01-08T18:42:40.904Z,9.50
2018-01-08T18:45:08.520Z,9.87
2018-01-08T18:47:36.835Z,9.47
2018-01-08T18:50:04.541Z,12.60
2018-01-08T18:52:32.147Z,12.77
2018-01-08T18:54:59.741Z,10.10
2018-01-08T18:57:27.334Z,9.63
2018-01-08T18:59:55.704Z,7.97
2018-01-08T19:02:24.042Z,8.97
2018-01-08T19:04:51.662Z,8.83
2018-01-08T19:07:19.224Z,11.77
2018-01-08T19:09:46.787Z,11.03
2018-01-08T19:12:14.401Z,10.73
2018-01-08T19:14:42.014Z,9.60
2018-01-08T19:17:09.552Z,11.30
2018-01-08T19:19:37.155Z,9.87
2018-01-08T19:22:04.784Z,8.67
2018-01-08T19:24:32.374Z,10.53
2018-01-08T19:27:00.194Z,11.80
2018-01-08T19:29:28.529Z,10.63
2018-01-08T19:31:56.118Z,9.03
2018-01-08T19:34:23.725Z,11.13
2018-01-08T19:36:51.273Z,10.37
2018-01-08T19:39:18.905Z,12.17
2018-01-08T19:41:46.502Z,12.30
2018-01-08T19:44:14.092Z,12.10
2018-01-08T19:46:41.657Z,12.43
2018-01-08T19:49:09.208Z,11.37
2018-01-08T19:51:36.875Z,10.60
2018-01-08T19:54:04.467Z,10.90
2018-01-08T19:56:32.042Z,11.27
2018-01-08T19:58:59.629Z,11.23
2018-01-08T20:01:27.215Z,13.70
2018-01-08T20:03:54.772Z,10.80
2018-01-08T20:06:22.293Z,17.33
2018-01-08T20:08:49.935Z,11.50
2018-01-08T20:11:17.540Z,13.07
2018-01-08T20:13:45.113Z,13.17
2018-01-08T20:16:12.722Z,13.00
2018-01-08T20:18:41.095Z,14.03
2018-01-08T20:21:08.706Z,12.50
2018-01-08T20:23:36.301Z,13.93
2018-01-08T20:26:03.924Z,13.23
2018-01-08T20:28:31.478Z,15.00
2018-01-08T20:30:59.066Z,12.73
2018-01-08T20:33:26.683Z,19.10
2018-01-08T20:35:54.281Z,11.63
2018-01-08T20:38:21.885Z,12.97
2018-01-08T20:40:49.463Z,14.33
2018-01-08T20:43:17.844Z,15.03
2018-01-08T20:45:45.412Z,14.63
2018-01-08T20:48:13.036Z,15.67
2018-01-08T20:50:40.631Z,14.27
2018-01-08T20:53:08.265Z,16.60
2018-01-08T20:55:36.573Z,12.93
2018-01-08T20:58:04.151Z,13.13
2018-01-08T21:00:31.765Z,13.50
2018-01-08T21:02:59.350Z,13.53
2018-01-08T21:05:26.915Z,17.53
2018-01-08T21:07:54.491Z,13.73
2018-01-08T21:10:22.041Z,14.97
2018-01-08T21:12:49.674Z,15.83
2018-01-08T21:15:17.559Z,12.83
2018-01-08T21:17:45.941Z,14.73
2018-01-08T21:20:13.541Z,13.70
2018-01-08T21:22:41.171Z,11.40
2018-01-08T21:25:08.751Z,16.37
2018-01-08T21:27:36.376Z,13.00
2018-01-08T21:30:03.993Z,13.40
2018-01-08T21:32:31.553Z,14.07
2018-01-08T21:34:59.191Z,14.20
2018-01-08T21:37:26.782Z,12.10
2018-01-08T21:39:54.396Z,13.93
2018-01-08T21:42:22.007Z,13.53
2018-01-08T21:44:49.620Z,14.00
2018-01-08T21:47:17.200Z,15.40
2018-01-08T21:49:44.822Z,13.57
2018-01-08T21:52:12.399Z,14.93
2018-01-08T21:54:40.031Z,15.17
2018-01-08T21:57:07.621Z,14.13
2018-01-08T21:59:35.225Z,13.10
2018-01-08T22:02:02.824Z,13.57
2018-01-08T22:04:30.435Z,12.10
2018-01-08T22:06:58.021Z,13.17
2018-01-08T22:09:25.642Z,13.77
2018-01-08T22:11:53.263Z,14.40
2018-01-08T22:14:20.852Z,14.63
2018-01-08T22:16:48.465Z,12.97
2018-01-08T22:19:16.093Z,12.70
2018-01-08T22:21:43.663Z,12.23
2018-01-08T22:24:11.278Z,13.97
2018-01-08T22:26:38.910Z,14.37
2018-01-08T22:29:06.523Z,11.97
2018-01-08T22:31:34.140Z,12.03
2018-01-08T22:34:01.724Z,12.40
2018-01-08T22:36:29.354Z,11.17
2018-01-08T22:38:56.999Z,14.67
2018-01-08T22:41:24.607Z,13.47
2018-01-08T22:43:52.191Z,12.87
2018-01-08T22:46:19.752Z,13.60
2018-01-08T22:48:47.370Z,14.43
2018-01-08T22:51:15.716Z,12.07
2018-01-08T22:53:43.327Z,12.70
2018-01-08T22:56:10.956Z,11.53
2018-01-08T22:58:39.665Z,12.17
2018-01-08T23:01:08.055Z,12.63
2018-01-08T23:03:35.638Z,18.47
2018-01-08T23:06:03.225Z,11.43
2018-01-08T23:08:30.844Z,15.47
2018-01-08T23:10:58.555Z,13.43
2018-01-08T23:13:26.159Z,15.07
2018-01-08T23:15:53.723Z,15.83
2018-01-08T23:18:21.331Z,15.13
2018-01-08T23:20:48.866Z,13.23
2018-01-08T23:23:16.471Z,14.23
2018-01-08T23:25:43.996Z,13.70
2018-01-08T23:28:11.594Z,15.47
2018-01-08T23:30:39.898Z,13.27
2018-01-08T23:33:07.483Z,13.73
2018-01-08T23:35:35.050Z,14.57
2018-01-08T23:38:02.617Z,14.07
2018-01-08T23:40:30.176Z,13.00
2018-01-08T23:42:57.698Z,13.83
2018-01-08T23:45:25.258Z,14.23
2018-01-08T23:47:52.909Z,14.30
2018-01-08T23:50:20.470Z,17.40
2018-01-08T23:52:48.041Z,13.83
2018-01-08T23:55:15.594Z,15.23
2018-01-08T23:57:43.215Z,13.63
